Time;durP1;ratioP1;P1;durP2;ratioP2;P2;SDS_P1;SDS_P2;PMS_P1;PMS_P2;Temp;Humidity;BMP_temperature;BMP_pressure;BME280_temperature;BME280_humidity;BME280_pressure;Samples;Min_cycle;Max_cycle;Signal;HPM_P1;HPM_P2
2021/07/19 00:02:27;;;;;;;17.57;7.15;;;;;;;26.15;65.32;100390.34;1684866;83;25920;-62
2021/07/19 00:04:54;;;;;;;17.12;8.65;;;;;;;26.16;65.26;100395.59;1690950;84;27466;-62
2021/07/19 00:07:21;;;;;;;12.78;8.25;;;;;;;26.19;65.18;100400.63;1683803;84;26522;-63
2021/07/19 00:09:47;;;;;;;17.55;7.78;;;;;;;26.22;64.93;100400.66;1655573;85;25788;-62
2021/07/19 00:12:17;;;;;;;16.17;7.03;;;;;;;26.22;64.81;100397.34;1670680;85;25792;-62
2021/07/19 00:14:46;;;;;;;23.00;7.60;;;;;;;26.22;64.73;100395.97;1684494;83;25811;-62
2021/07/19 00:17:19;;;;;;;18.73;7.20;;;;;;;26.22;64.79;100395.15;1679193;83;27407;-62
2021/07/19 00:19:48;;;;;;;16.60;7.62;;;;;;;26.21;64.70;100398.46;1681700;83;32543;-62
2021/07/19 00:22:17;;;;;;;13.65;6.87;;;;;;;26.18;64.77;100399.47;1690282;83;25767;-62
2021/07/19 00:24:44;;;;;;;15.88;7.08;;;;;;;26.13;64.68;100392.51;1713278;83;25807;-62
2021/07/19 00:27:12;;;;;;;10.72;6.53;;;;;;;26.12;64.81;100397.72;1704863;83;26277;-61
2021/07/19 00:29:39;;;;;;;16.45;6.75;;;;;;;26.09;64.89;100396.31;1680931;83;27415;-62
2021/07/19 00:32:07;;;;;;;15.30;6.95;;;;;;;26.08;64.94;100393.22;1682277;83;25741;-63
2021/07/19 00:34:35;;;;;;;13.55;7.30;;;;;;;26.07;64.98;100399.81;1684435;85;25950;-62
2021/07/19 00:37:04;;;;;;;17.40;8.13;;;;;;;26.05;64.78;100392.33;1682730;85;25787;-62
2021/07/19 00:39:31;;;;;;;14.73;7.25;;;;;;;26.03;64.63;100396.73;1655192;86;25857;-62
2021/07/19 00:41:58;;;;;;;13.70;7.53;;;;;;;26.00;64.83;100399.14;1662263;85;27433;-63
2021/07/19 00:44:26;;;;;;;11.45;6.55;;;;;;;25.96;64.71;100395.20;1679816;85;25749;-62
2021/07/19 00:46:55;;;;;;;14.45;7.83;;;;;;;25.92;64.67;100397.09;1659602;84;25829;-63
2021/07/19 00:49:24;;;;;;;28.17;15.18;;;;;;;25.89;64.62;100389.87;1684299;84;25759;-62
2021/07/19 00:51:53;;;;;;;19.92;9.13;;;;;;;25.85;64.85;100393.66;1683310;85;25763;-62
2021/07/19 00:54:21;;;;;;;15.93;7.00;;;;;;;25.82;64.85;100391.39;1678196;85;28133;-62
2021/07/19 00:56:51;;;;;;;17.67;7.17;;;;;;;25.74;65.02;100383.53;1665037;85;25931;-62
2021/07/19 00:59:23;;;;;;;14.55;7.33;;;;;;;25.72;64.79;100385.69;1649638;85;25732;-62
2021/07/19 01:01:53;;;;;;;20.32;7.03;;;;;;;25.69;64.95;100388.92;1663634;84;26423;-62
2021/07/19 01:04:24;;;;;;;20.53;7.63;;;;;;;25.63;65.21;100386.09;1670106;84;25728;-62
2021/07/19 01:06:56;;;;;;;12.30;7.00;;;;;;;25.58;65.72;100388.76;1663627;85;27403;-62
2021/07/19 01:09:28;;;;;;;17.62;7.90;;;;;;;25.50;66.07;100386.92;1658399;85;25746;-62
2021/07/19 01:12:01;;;;;;;16.70;7.75;;;;;;;25.43;65.74;100385.68;1672890;85;25789;-62
2021/07/19 01:14:29;;;;;;;12.73;7.60;;;;;;;25.42;66.19;100392.27;1670389;84;25749;-62
2021/07/19 01:16:57;;;;;;;21.93;7.20;;;;;;;25.41;66.38;100392.81;1657760;85;25813;-62
2021/07/19 01:19:30;;;;;;;15.63;7.90;;;;;;;25.43;66.14;100384.30;1660952;84;27456;-62
2021/07/19 01:22:31;;;;;;;13.62;7.20;;;;;;;25.43;66.16;100387.05;1654922;85;26578;-62
2021/07/19 01:25:26;;;;;;;19.60;7.47;;;;;;;25.42;65.92;100387.61;1671532;85;25792;-62
2021/07/19 01:28:36;;;;;;;20.32;8.00;;;;;;;25.40;65.85;100389.77;1673257;83;25820;-62
2021/07/19 01:31:13;;;;;;;19.32;8.15;;;;;;;25.42;65.96;100383.48;1662677;84;25769;-62
2021/07/19 01:33:45;;;;;;;24.32;9.05;;;;;;;25.45;65.96;100391.78;1652783;85;27540;-62
2021/07/19 01:36:16;;;;;;;18.40;8.05;;;;;;;25.46;66.29;100393.46;1647160;85;26597;-62
2021/07/19 01:38:45;;;;;;;20.95;8.68;;;;;;;25.47;66.28;100393.20;1641904;85;25797;-62
2021/07/19 01:41:17;;;;;;;15.72;6.90;;;;;;;25.46;66.00;100386.58;1651331;85;25734;-62
2021/07/19 01:43:47;;;;;;;14.25;7.75;;;;;;;25.47;66.23;100389.08;1656386;84;25731;-62
2021/07/19 01:46:17;;;;;;;9.95;7.72;;;;;;;25.39;66.75;100387.23;1629120;85;27471;-62
2021/07/19 01:48:46;;;;;;;14.93;7.72;;;;;;;25.30;66.52;100389.00;1649619;85;25755;-62
2021/07/19 01:51:14;;;;;;;27.17;8.33;;;;;;;25.29;66.56;100389.22;1645982;85;25786;-62
2021/07/19 01:53:44;;;;;;;22.58;9.18;;;;;;;25.31;66.55;100393.95;1662277;85;26496;-62
2021/07/19 01:56:15;;;;;;;35.58;12.40;;;;;;;25.32;66.70;100394.25;1645224;87;25799;-62
2021/07/19 01:58:44;;;;;;;21.42;8.25;;;;;;;25.36;66.86;100387.72;1633027;85;28216;-62
2021/07/19 02:01:17;;;;;;;11.05;8.08;;;;;;;25.36;66.80;100388.56;1670953;84;25842;-62
2021/07/19 02:03:45;;;;;;;16.67;7.62;;;;;;;25.37;66.67;100390.77;1682635;84;25913;-61
2021/07/19 02:06:15;;;;;;;13.68;7.55;;;;;;;25.34;66.52;100393.47;1684048;85;25753;-62
2021/07/19 02:08:48;;;;;;;18.35;7.72;;;;;;;25.34;66.58;100393.47;1675842;84;25942;-62
2021/07/19 02:11:19;;;;;;;14.50;7.33;;;;;;;25.31;66.43;100390.67;1661128;85;27573;-62
2021/07/19 02:13:47;;;;;;;17.12;7.90;;;;;;;25.30;66.43;100397.25;1657177;85;26563;-62
2021/07/19 02:16:17;;;;;;;15.20;8.05;;;;;;;25.30;66.54;100396.41;1641837;85;25817;-62
2021/07/19 02:18:47;;;;;;;19.12;8.38;;;;;;;25.31;66.46;100397.56;1677392;83;27248;-62
2021/07/19 02:21:19;;;;;;;16.87;9.00;;;;;;;25.30;66.58;100401.39;1654719;83;25921;-62
2021/07/19 02:24:06;;;;;;;15.83;8.10;;;;;;;25.29;66.66;100399.71;1690941;82;28172;-62
2021/07/19 02:26:36;;;;;;;21.35;8.00;;;;;;;25.31;66.88;100399.45;1681039;83;25745;-62
2021/07/19 02:29:04;;;;;;;22.73;8.28;;;;;;;25.28;66.78;100402.72;1673846;84;26494;-62
2021/07/19 02:31:32;;;;;;;13.72;8.53;;;;;;;25.26;66.68;100398.81;1682203;84;25753;-62
2021/07/19 02:34:02;;;;;;;17.77;8.68;;;;;;;25.26;66.81;100402.12;1655820;85;25980;-62
2021/07/19 02:36:30;;;;;;;16.55;8.15;;;;;;;25.25;66.67;100405.95;1655200;85;28199;-62
2021/07/19 02:38:59;;;;;;;18.60;8.35;;;;;;;25.22;66.99;100403.66;1627005;86;25812;-62
2021/07/19 02:41:28;;;;;;;16.37;8.45;;;;;;;25.23;66.96;100403.45;1643552;87;26533;-61
2021/07/19 02:44:01;;;;;;;17.35;9.40;;;;;;;25.22;66.75;100405.90;1625859;84;26510;-62
2021/07/19 02:46:33;;;;;;;13.22;8.13;;;;;;;25.21;66.84;100415.23;1629716;86;25936;-62
2021/07/19 02:49:01;;;;;;;15.88;8.68;;;;;;;25.20;66.81;100414.93;1634307;87;28421;-61
2021/07/19 02:51:30;;;;;;;20.88;8.73;;;;;;;25.21;66.88;100413.85;1645417;87;25999;-62
2021/07/19 02:54:00;;;;;;;22.10;8.93;;;;;;;25.19;66.92;100410.50;1642310;85;25804;-62
2021/07/19 02:56:29;;;;;;;14.60;8.85;;;;;;;25.15;66.57;100414.28;1638980;87;25864;-61
2021/07/19 02:58:56;;;;;;;18.37;8.95;;;;;;;25.14;67.14;100416.73;1643597;86;25842;-61
2021/07/19 03:01:24;;;;;;;21.77;8.98;;;;;;;25.07;67.12;100419.30;1627491;87;27371;-62
2021/07/19 03:03:56;;;;;;;21.85;8.25;;;;;;;25.07;67.12;100423.44;1646738;87;25950;-61
2021/07/19 03:06:28;;;;;;;16.65;9.83;;;;;;;25.02;66.91;100418.66;1646197;87;25780;-62
2021/07/19 03:08:56;;;;;;;16.43;9.70;;;;;;;25.01;67.09;100433.52;1634484;87;25806;-62
2021/07/19 03:11:42;;;;;;;12.88;8.70;;;;;;;25.00;67.41;100439.55;1620303;88;25813;-62
2021/07/19 03:14:20;;;;;;;22.70;9.63;;;;;;;24.97;67.46;100439.19;1629066;86;27403;-62
2021/07/19 03:16:51;;;;;;;13.85;8.85;;;;;;;24.94;67.51;100443.78;1637475;85;25973;-62
2021/07/19 03:19:19;;;;;;;16.07;9.05;;;;;;;24.86;68.68;100460.14;1630364;86;25751;-62
2021/07/19 03:21:48;;;;;;;14.38;8.53;;;;;;;24.80;69.88;100447.31;1624674;86;25736;-62
2021/07/19 03:24:23;;;;;;;18.00;8.95;;;;;;;24.66;69.05;100453.55;1631508;86;25777;-62
2021/07/19 03:26:50;;;;;;;24.37;9.68;;;;;;;24.62;70.10;100450.45;1627439;87;28082;-62
2021/07/19 03:29:19;;;;;;;16.15;9.10;;;;;;;24.47;70.17;100451.45;1644135;87;25753;-62
2021/07/19 03:31:58;;;;;;;22.55;9.73;;;;;;;24.44;70.43;100461.53;1632737;85;25882;-61
2021/07/19 03:34:27;;;;;;;17.67;9.08;;;;;;;24.44;70.04;100462.91;1622924;87;25784;-61
2021/07/19 03:36:56;;;;;;;19.50;10.05;;;;;;;24.47;70.43;100458.32;1644469;87;25797;-61
2021/07/19 03:39:24;;;;;;;25.72;10.20;;;;;;;24.51;69.95;100460.91;1645590;86;28158;-62
2021/07/19 03:42:00;;;;;;;22.60;9.00;;;;;;;24.61;69.88;100458.39;1645568;85;25782;-61
2021/07/19 03:44:27;;;;;;;32.33;10.03;;;;;;;24.72;69.63;100461.42;1632873;86;25885;-61
2021/07/19 03:46:55;;;;;;;18.40;9.88;;;;;;;24.79;69.75;100471.25;1623810;87;26832;-61
2021/07/19 03:49:25;;;;;;;27.40;9.85;;;;;;;24.80;69.23;100477.57;1647087;86;27321;-61
2021/07/19 03:51:53;;;;;;;20.08;9.38;;;;;;;24.84;69.03;100477.41;1645227;87;28139;-61
2021/07/19 03:54:21;;;;;;;37.75;9.80;;;;;;;24.90;68.93;100486.08;1620619;87;26497;-61
2021/07/19 03:56:50;;;;;;;23.57;10.48;;;;;;;25.00;68.84;100482.75;1624966;86;25822;-61
2021/07/19 03:59:20;;;;;;;22.52;11.15;;;;;;;25.07;68.42;100488.95;1644082;86;25834;-61
2021/07/19 04:01:48;;;;;;;19.65;10.00;;;;;;;25.11;68.25;100477.75;1641164;85;25819;-61
2021/07/19 04:04:31;;;;;;;22.70;10.65;;;;;;;25.15;67.33;100486.36;1633423;86;27463;-62
2021/07/19 04:06:52;;;;;;;26.15;10.50;;;;;;;25.20;67.27;100489.77;1625155;85;25854;-62
2021/07/19 04:09:20;;;;;;;18.75;10.85;;;;;;;25.21;67.12;100492.30;1660571;85;25811;-61
2021/07/19 04:11:50;;;;;;;26.42;10.85;;;;;;;25.16;66.80;100494.40;1652887;85;25836;-63
2021/07/19 04:14:18;;;;;;;21.48;12.23;;;;;;;25.11;66.63;100496.20;1623410;87;25812;-61
2021/07/19 04:16:46;;;;;;;25.10;11.70;;;;;;;25.11;66.77;100503.08;1609395;86;28217;-61
2021/07/19 04:19:14;;;;;;;41.15;12.98;;;;;;;25.08;66.68;100504.40;1651210;85;25908;-62
2021/07/19 04:21:42;;;;;;;16.70;11.43;;;;;;;25.07;66.51;100505.99;1633038;86;25794;-60
2021/07/19 04:24:11;;;;;;;32.75;12.37;;;;;;;25.06;66.58;100506.55;1634062;86;26475;-62
2021/07/19 04:26:41;;;;;;;32.08;12.13;;;;;;;25.08;66.51;100511.28;1638268;85;26527;-61
2021/07/19 04:29:10;;;;;;;29.65;13.28;;;;;;;25.09;66.49;100513.48;1639323;87;27480;-62
2021/07/19 04:31:39;;;;;;;42.60;20.72;;;;;;;25.05;66.35;100518.63;1639211;87;25763;-61
2021/07/19 04:34:18;;;;;;;35.20;22.70;;;;;;;25.02;66.33;100515.52;1621845;88;25814;-65
2021/07/19 04:36:50;;;;;;;26.15;11.73;;;;;;;25.04;66.24;100518.33;1585165;89;25914;-62
2021/07/19 04:39:18;;;;;;;23.73;11.12;;;;;;;25.08;66.11;100522.80;1632482;85;25909;-63
2021/07/19 04:41:52;;;;;;;24.18;11.60;;;;;;;25.15;66.05;100518.87;1617116;86;28576;-63
2021/07/19 04:44:17;;;;;;;32.78;11.95;;;;;;;25.29;66.00;100514.48;1603003;87;25835;-63
2021/07/19 04:46:44;;;;;;;30.12;11.10;;;;;;;25.44;65.77;100506.61;1603989;87;25358;-63
2021/07/19 04:49:11;;;;;;;22.55;10.93;;;;;;;25.58;65.51;100508.56;1610249;88;25812;-62
2021/07/19 04:51:38;;;;;;;26.55;11.70;;;;;;;25.59;64.35;100509.39;1614825;88;25699;-62
2021/07/19 04:54:08;;;;;;;27.93;10.82;;;;;;;25.55;64.37;100521.43;1619217;86;27562;-62
2021/07/19 04:56:37;;;;;;;23.62;12.47;;;;;;;25.50;64.36;100521.34;1618182;86;25829;-62
2021/07/19 04:59:06;;;;;;;32.28;12.15;;;;;;;25.40;64.41;100527.44;1622437;87;26756;-62
2021/07/19 05:01:35;;;;;;;25.92;12.07;;;;;;;25.35;64.75;100523.69;1651412;85;25801;-62
2021/07/19 05:04:04;;;;;;;28.02;12.10;;;;;;;25.25;64.96;100525.14;1685700;84;25931;-63
2021/07/19 05:06:33;;;;;;;26.25;12.00;;;;;;;25.16;65.10;100532.08;1685304;84;27457;-62
2021/07/19 05:09:02;;;;;;;24.12;11.70;;;;;;;25.14;65.57;100524.63;1669791;84;25725;-62
2021/07/19 05:11:30;;;;;;;25.05;12.75;;;;;;;25.15;65.28;100525.75;1649235;85;25836;-62
2021/07/19 05:13:58;;;;;;;29.12;12.75;;;;;;;25.18;65.42;100534.61;1685201;85;25796;-62
2021/07/19 05:16:28;;;;;;;26.05;13.40;;;;;;;25.22;65.17;100538.55;1661337;84;26487;-62
2021/07/19 05:18:54;;;;;;;23.32;12.63;;;;;;;25.26;65.37;100537.83;1664928;84;28265;-62
2021/07/19 05:21:22;;;;;;;23.27;11.60;;;;;;;25.36;65.60;100540.52;1673792;84;25814;-63
2021/07/19 05:23:49;;;;;;;27.02;12.82;;;;;;;25.46;65.22;100537.47;1669950;84;25791;-62
2021/07/19 05:26:16;;;;;;;32.45;11.35;;;;;;;25.52;64.73;100534.85;1670748;85;26486;-62
2021/07/19 05:28:43;;;;;;;28.90;12.07;;;;;;;25.63;64.85;100536.20;1670211;85;25804;-61
2021/07/19 05:31:10;;;;;;;24.02;11.90;;;;;;;25.79;64.77;100537.89;1670382;84;27484;-62
2021/07/19 05:33:37;;;;;;;25.00;12.45;;;;;;;25.85;64.30;100532.81;1670981;84;25834;-62
2021/07/19 05:36:04;;;;;;;22.73;11.48;;;;;;;25.94;64.24;100543.74;1671006;84;25818;-62
2021/07/19 05:38:31;;;;;;;33.00;13.03;;;;;;;25.99;63.92;100541.63;1674928;85;25826;-63
2021/07/19 05:40:58;;;;;;;25.52;12.63;;;;;;;26.07;64.02;100534.88;1674516;83;25816;-62
2021/07/19 05:43:25;;;;;;;27.42;12.35;;;;;;;26.17;64.23;100540.62;1665662;84;28197;-62
2021/07/19 05:45:52;;;;;;;28.92;11.78;;;;;;;26.14;63.79;100522.36;1659540;86;26409;-62
2021/07/19 05:48:19;;;;;;;29.85;11.33;;;;;;;26.29;62.95;100528.71;1665327;85;25467;-62
2021/07/19 05:50:46;;;;;;;31.20;11.97;;;;;;;26.30;62.97;100533.15;1669907;85;26293;-62
2021/07/19 05:53:13;;;;;;;30.75;12.85;;;;;;;26.34;62.95;100532.41;1669662;84;25822;-62
2021/07/19 05:55:40;;;;;;;21.02;11.70;;;;;;;26.39;62.53;100531.11;1670153;85;28318;-63
2021/07/19 05:58:07;;;;;;;26.10;12.40;;;;;;;26.36;62.42;100537.66;1648107;85;27291;-62
2021/07/19 06:00:35;;;;;;;24.75;10.90;;;;;;;26.45;62.60;100529.28;1674014;84;25756;-62
2021/07/19 06:03:05;;;;;;;28.23;10.95;;;;;;;26.57;62.94;100525.07;1672520;84;25804;-62
2021/07/19 06:05:32;;;;;;;18.15;10.53;;;;;;;26.64;62.82;100532.64;1655719;85;25470;-62
2021/07/19 06:08:00;;;;;;;35.25;12.90;;;;;;;26.71;62.63;100538.00;1654862;85;27499;-62
2021/07/19 06:10:26;;;;;;;29.67;11.53;;;;;;;26.80;62.42;100536.53;1674834;84;26631;-62
2021/07/19 06:12:54;;;;;;;29.52;10.80;;;;;;;26.86;61.61;100534.14;1679867;84;25799;-62
2021/07/19 06:15:21;;;;;;;27.02;10.53;;;;;;;26.90;61.21;100537.23;1668305;85;25781;-62
2021/07/19 06:17:48;;;;;;;35.28;12.78;;;;;;;26.99;60.70;100530.77;1663422;85;25704;-62
2021/07/19 06:20:19;;;;;;;23.15;10.80;;;;;;;27.04;60.50;100537.73;1681637;84;27485;-62
2021/07/19 06:22:48;;;;;;;21.95;11.75;;;;;;;27.06;60.08;100537.50;1653140;84;25791;-63
2021/07/19 06:25:16;;;;;;;36.85;12.23;;;;;;;27.06;59.96;100541.64;1661996;84;25443;-62
2021/07/19 06:27:44;;;;;;;20.68;11.18;;;;;;;27.11;60.15;100552.22;1671145;84;25851;-62
2021/07/19 06:30:14;;;;;;;25.48;11.22;;;;;;;27.21;59.95;100539.10;1675030;84;25710;-62
2021/07/19 06:32:42;;;;;;;23.90;12.15;;;;;;;27.30;59.80;100554.67;1671275;84;27406;-62
2021/07/19 06:35:11;;;;;;;28.32;11.85;;;;;;;27.30;59.69;100553.30;1671748;85;25869;-63
2021/07/19 06:37:39;;;;;;;20.97;11.95;;;;;;;27.23;59.34;100557.64;1666823;85;25697;-62
2021/07/19 06:40:09;;;;;;;29.90;12.10;;;;;;;27.16;59.62;100561.12;1664401;84;26638;-63
2021/07/19 06:42:37;;;;;;;22.30;10.88;;;;;;;27.14;59.61;100557.77;1669254;84;25729;-62
2021/07/19 06:45:11;;;;;;;26.97;10.98;;;;;;;27.15;59.52;100556.69;1666610;84;28153;-62
2021/07/19 06:47:39;;;;;;;30.55;11.93;;;;;;;27.27;59.68;100560.17;1646946;85;25719;-62
2021/07/19 06:50:10;;;;;;;19.00;11.48;;;;;;;27.30;59.09;100571.25;1652962;85;25808;-62
2021/07/19 06:52:39;;;;;;;28.45;11.93;;;;;;;27.28;59.10;100564.61;1629505;86;25755;-62
2021/07/19 06:55:09;;;;;;;21.52;10.50;;;;;;;27.31;59.63;100566.02;1654049;84;25781;-63
2021/07/19 06:57:37;;;;;;;28.23;10.63;;;;;;;27.45;60.06;100572.05;1669395;85;27458;-63
2021/07/19 07:00:07;;;;;;;22.77;10.50;;;;;;;27.54;58.92;100572.47;1671583;85;25818;-61
2021/07/19 07:02:34;;;;;;;22.62;9.83;;;;;;;27.56;58.58;100575.82;1675736;84;25809;-61
2021/07/19 07:05:00;;;;;;;43.92;23.77;;;;;;;27.60;58.83;100572.82;1655658;85;26460;-61
2021/07/19 07:07:27;;;;;;;31.48;10.53;;;;;;;27.73;59.01;100568.31;1652778;85;26309;-61
2021/07/19 07:09:55;;;;;;;27.05;9.98;;;;;;;27.90;58.83;100577.09;1666704;84;27482;-61
2021/07/19 07:12:22;;;;;;;34.13;10.05;;;;;;;28.05;58.45;100579.22;1670230;85;25939;-61
2021/07/19 07:14:49;;;;;;;27.73;9.93;;;;;;;28.23;57.85;100576.15;1665616;85;26532;-61
2021/07/19 07:17:16;;;;;;;22.82;9.18;;;;;;;28.40;57.35;100571.06;1633649;87;25773;-61
2021/07/19 07:19:44;;;;;;;28.40;10.63;;;;;;;28.49;57.04;100575.56;1652436;85;25835;-62
2021/07/19 07:22:11;;;;;;;22.32;9.25;;;;;;;28.59;56.42;100578.44;1645685;86;27458;-62
2021/07/19 07:24:41;;;;;;;25.40;10.43;;;;;;;28.68;56.59;100583.78;1648464;86;25946;-61
2021/07/19 07:27:10;;;;;;;27.40;10.85;;;;;;;28.78;56.12;100583.63;1629605;87;25829;-61
2021/07/19 07:29:38;;;;;;;27.62;10.45;;;;;;;28.68;55.45;100582.40;1620862;86;25895;-61
2021/07/19 07:32:06;;;;;;;22.95;10.10;;;;;;;28.58;55.53;100576.23;1630706;87;25798;-62
2021/07/19 07:34:33;;;;;;;26.93;9.50;;;;;;;28.54;55.54;100585.31;1630842;87;27514;-61
2021/07/19 07:37:00;;;;;;;21.62;10.08;;;;;;;28.41;55.51;100595.69;1632097;86;26472;-61
2021/07/19 07:39:27;;;;;;;38.90;10.45;;;;;;;28.38;55.77;100590.66;1608185;87;25854;-61
2021/07/19 07:41:54;;;;;;;20.37;9.30;;;;;;;28.47;55.99;100586.90;1623740;87;26526;-62
2021/07/19 07:44:21;;;;;;;26.95;10.20;;;;;;;28.43;55.31;100595.42;1630304;87;25866;-62
2021/07/19 07:46:49;;;;;;;21.73;9.63;;;;;;;28.32;55.62;100595.05;1632721;87;27989;-62
2021/07/19 07:49:17;;;;;;;29.87;10.38;;;;;;;28.29;56.12;100592.22;1610034;87;25815;-62
2021/07/19 07:51:44;;;;;;;30.97;10.85;;;;;;;28.33;56.59;100598.92;1620308;86;26601;-62
2021/07/19 07:54:11;;;;;;;26.05;9.03;;;;;;;28.43;56.16;100597.66;1609002;87;25804;-62
2021/07/19 07:56:38;;;;;;;30.92;10.10;;;;;;;28.53;55.50;100598.30;1601962;88;25735;-62
2021/07/19 07:59:05;;;;;;;28.50;10.45;;;;;;;28.53;55.25;100597.47;1630611;87;28228;-62
2021/07/19 08:01:32;;;;;;;26.27;11.03;;;;;;;28.46;54.53;100598.23;1646569;85;25907;-62
2021/07/19 08:03:59;;;;;;;28.30;9.70;;;;;;;28.46;55.20;100598.23;1644996;85;25806;-62
2021/07/19 08:06:26;;;;;;;33.90;10.45;;;;;;;28.50;55.53;100600.22;1646516;85;25800;-62
2021/07/19 08:08:52;;;;;;;21.02;10.82;;;;;;;28.63;55.84;100589.28;1649472;85;25856;-62
2021/07/19 08:11:20;;;;;;;28.52;10.18;;;;;;;28.84;55.72;100588.95;1661500;85;28656;-62
2021/07/19 08:13:47;;;;;;;29.00;9.43;;;;;;;29.03;55.17;100579.69;1660215;85;25853;-63
2021/07/19 08:16:14;;;;;;;21.20;10.05;;;;;;;29.21;54.95;100583.13;1651823;85;25876;-62
2021/07/19 08:18:41;;;;;;;34.65;10.28;;;;;;;29.40;54.31;100585.51;1650474;85;26526;-62
2021/07/19 08:21:08;;;;;;;30.55;9.73;;;;;;;29.51;54.06;100583.09;1649168;85;27241;-61
2021/07/19 08:23:35;;;;;;;27.75;9.80;;;;;;;29.65;53.53;100585.66;1682394;85;27468;-62
2021/07/19 08:26:02;;;;;;;26.35;9.03;;;;;;;29.75;53.84;100573.80;1713911;83;25815;-62
2021/07/19 08:28:29;;;;;;;31.95;10.75;;;;;;;29.82;53.52;100578.55;1711540;83;25841;-62
2021/07/19 08:30:56;;;;;;;28.25;10.00;;;;;;;29.92;52.55;100573.61;1666252;85;25877;-62
2021/07/19 08:33:25;;;;;;;26.45;9.73;;;;;;;29.96;51.98;100576.14;1677316;84;25798;-61
2021/07/19 08:35:52;;;;;;;26.65;10.23;;;;;;;29.97;52.60;100572.27;1677860;83;27472;-61
2021/07/19 08:38:19;;;;;;;19.90;9.13;;;;;;;30.04;51.94;100568.39;1704453;83;25807;-61
2021/07/19 08:40:48;;;;;;;25.35;9.50;;;;;;;30.01;52.06;100572.55;1728124;83;25853;-62
2021/07/19 08:43:15;;;;;;;25.65;10.23;;;;;;;30.09;52.30;100573.41;1699854;83;25784;-61
2021/07/19 08:45:42;;;;;;;27.87;9.80;;;;;;;30.20;51.91;100570.11;1683481;85;25869;-62
2021/07/19 08:48:09;;;;;;;26.25;9.55;;;;;;;30.21;51.08;100572.34;1683634;85;27509;-62
2021/07/19 08:50:37;;;;;;;22.95;9.75;;;;;;;30.18;51.20;100563.17;1683913;85;25848;-62
2021/07/19 08:53:04;;;;;;;23.70;9.68;;;;;;;30.24;51.28;100560.14;1682382;83;25818;-62
2021/07/19 08:55:31;;;;;;;22.32;8.90;;;;;;;30.31;51.02;100561.81;1656267;86;25832;-62
2021/07/19 08:58:02;;;;;;;26.80;10.03;;;;;;;30.34;50.94;100551.00;1671986;84;25777;-62
2021/07/19 09:00:29;;;;;;;29.67;9.68;;;;;;;30.31;50.34;100559.86;1684217;83;27563;-62
2021/07/19 09:02:56;;;;;;;24.00;8.95;;;;;;;30.41;50.53;100557.67;1688819;83;25729;-62
2021/07/19 09:05:26;;;;;;;31.10;9.63;;;;;;;30.52;50.27;100552.45;1682215;85;26549;-62
2021/07/19 09:07:53;;;;;;;20.40;8.73;;;;;;;30.72;50.14;100553.56;1684295;85;26448;-62
2021/07/19 09:10:28;;;;;;;20.40;9.25;;;;;;;30.91;49.99;100546.34;1684525;84;25896;-61
2021/07/19 09:13:00;;;;;;;22.22;9.18;;;;;;;31.13;48.81;100538.31;1677333;83;27503;-61
2021/07/19 09:15:37;;;;;;;22.30;8.90;;;;;;;31.17;48.22;100546.91;1674843;85;26422;-63
2021/07/19 09:18:06;;;;;;;27.75;9.58;;;;;;;31.34;48.69;100545.19;1683065;83;26469;-62
2021/07/19 09:20:37;;;;;;;25.50;9.20;;;;;;;31.42;48.11;100544.64;1707713;83;25793;-63
2021/07/19 09:23:07;;;;;;;22.40;8.08;;;;;;;31.53;47.77;100532.92;1695756;83;25824;-60
2021/07/19 09:25:35;;;;;;;25.55;9.88;;;;;;;31.82;47.18;100522.56;1676504;84;27454;-63
2021/07/19 09:28:13;;;;;;;19.75;8.45;;;;;;;32.02;47.25;100528.56;1683985;83;25764;-61
2021/07/19 09:30:44;;;;;;;20.20;8.80;;;;;;;32.16;47.30;100527.38;1664414;85;25835;-61
2021/07/19 09:33:18;;;;;;;24.47;9.73;;;;;;;32.40;46.07;100534.48;1683351;85;25843;-61
2021/07/19 09:35:49;;;;;;;23.07;9.63;;;;;;;32.54;45.47;100530.48;1682967;83;25783;-62
2021/07/19 09:38:18;;;;;;;18.57;9.05;;;;;;;32.82;45.75;100530.00;1667069;85;27474;-61
2021/07/19 09:40:48;;;;;;;31.97;10.35;;;;;;;33.07;44.92;100532.55;1684159;84;25828;-62
2021/07/19 09:43:23;;;;;;;23.22;8.83;;;;;;;33.11;44.17;100527.20;1685307;83;26328;-62
2021/07/19 09:46:03;;;;;;;25.55;8.88;;;;;;;33.35;44.44;100525.05;1671027;85;25778;-60
2021/07/19 09:48:30;;;;;;;21.87;9.25;;;;;;;33.68;44.15;100519.63;1656873;86;26470;-60
2021/07/19 09:50:59;;;;;;;23.18;9.78;;;;;;;33.74;43.01;100521.22;1685035;83;27523;-61
2021/07/19 09:53:41;;;;;;;21.00;9.13;;;;;;;33.89;42.83;100508.24;1684663;85;25520;-62
2021/07/19 09:56:17;;;;;;;15.65;8.78;;;;;;;34.06;42.67;100502.13;1683762;83;25795;-62
2021/07/19 09:58:47;;;;;;;19.90;9.43;;;;;;;34.11;42.01;100507.06;1684282;85;25796;-62
2021/07/19 10:01:36;;;;;;;25.43;8.53;;;;;;;34.22;41.48;100500.76;1688506;83;25661;-63
2021/07/19 10:04:14;;;;;;;20.55;9.13;;;;;;;34.52;41.71;100488.88;1679045;84;27448;-59
2021/07/19 10:06:45;;;;;;;24.12;9.30;;;;;;;34.99;40.07;100503.45;1646553;87;25688;-63
2021/07/19 10:09:13;;;;;;;23.02;8.73;;;;;;;35.17;39.78;100500.30;1646697;87;25778;-60
2021/07/19 10:11:46;;;;;;;27.67;9.90;;;;;;;35.25;39.58;100496.78;1647030;87;26377;-61
2021/07/19 10:14:28;;;;;;;33.25;8.75;;;;;;;35.54;39.71;100496.52;1650663;85;25731;-60
2021/07/19 10:17:00;;;;;;;25.20;8.58;;;;;;;35.86;39.10;100500.30;1655085;85;31769;-61
2021/07/19 10:19:28;;;;;;;27.10;9.08;;;;;;;36.43;38.20;100504.64;1685048;84;25816;-60
2021/07/19 10:21:56;;;;;;;50.23;35.43;;;;;;;37.03;37.28;100502.55;1691362;84;25847;-60
2021/07/19 10:24:23;;;;;;;23.92;9.50;;;;;;;37.51;35.65;100498.13;1657779;85;26490;-60
2021/07/19 10:26:51;;;;;;;39.50;8.93;;;;;;;37.92;35.35;100496.68;1676231;84;25753;-61
2021/07/19 10:29:18;;;;;;;15.83;7.55;;;;;;;38.44;33.49;100498.66;1679797;85;27460;-61
2021/07/19 10:31:46;;;;;;;23.15;9.45;;;;;;;38.76;33.67;100503.50;1676707;84;25738;-61
2021/07/19 10:34:14;;;;;;;20.02;8.78;;;;;;;39.05;33.31;100500.52;1671374;85;25472;-61
2021/07/19 10:37:00;;;;;;;25.68;9.00;;;;;;;39.42;32.52;100499.47;1665475;85;26460;-62
2021/07/19 10:39:35;;;;;;;15.75;8.08;;;;;;;39.82;32.53;100502.48;1658878;86;25760;-61
2021/07/19 10:42:09;;;;;;;16.48;7.83;;;;;;;40.37;31.75;100498.57;1658382;85;28394;-61
2021/07/19 10:44:43;;;;;;;18.10;7.40;;;;;;;40.84;29.74;100493.81;1653194;85;25829;-61
2021/07/19 10:47:21;;;;;;;18.35;7.58;;;;;;;41.05;28.84;100492.94;1675812;85;25868;-61
2021/07/19 10:50:00;;;;;;;13.25;5.83;;;;;;;40.84;29.47;100494.62;1674815;84;26434;-60
2021/07/19 10:52:36;;;;;;;19.75;6.67;;;;;;;40.96;28.80;100492.43;1675574;85;25739;-62
2021/07/19 10:55:06;;;;;;;14.68;6.47;;;;;;;41.09;28.63;100489.06;1673202;85;27486;-61
2021/07/19 10:57:41;;;;;;;17.07;6.60;;;;;;;41.13;26.72;100484.95;1675482;84;25660;-61
2021/07/19 11:00:23;;;;;;;19.40;7.05;;;;;;;41.08;27.98;100484.59;1676226;84;25680;-61
2021/07/19 11:02:47;;;;;;;16.75;6.35;;;;;;;41.49;28.12;100483.89;1673450;84;26819;-61
2021/07/19 11:05:15;;;;;;;28.35;6.65;;;;;;;41.81;26.65;100472.79;1675690;84;25957;-61
2021/07/19 11:07:45;;;;;;;18.67;6.10;;;;;;;41.95;27.10;100471.02;1674855;84;27448;-61
2021/07/19 11:10:21;;;;;;;15.30;5.85;;;;;;;41.89;27.23;100469.84;1674188;85;25837;-61
2021/07/19 11:12:54;;;;;;;22.67;6.65;;;;;;;42.21;27.18;100463.48;1683209;85;25752;-62
2021/07/19 11:15:38;;;;;;;19.12;6.72;;;;;;;42.31;26.00;100454.48;1675052;85;26504;-62
2021/07/19 11:18:25;;;;;;;19.65;7.10;;;;;;;42.37;26.43;100448.02;1676011;85;26324;-60
2021/07/19 11:21:00;;;;;;;13.22;6.10;;;;;;;42.69;25.85;100444.63;1689119;83;27467;-60
2021/07/19 11:23:32;;;;;;;19.35;6.50;;;;;;;42.84;25.82;100434.55;1692094;83;25775;-61
2021/07/19 11:26:03;;;;;;;16.85;6.58;;;;;;;43.21;25.45;100436.87;1683757;83;25848;-61
2021/07/19 11:28:40;;;;;;;15.43;6.70;;;;;;;43.73;25.00;100442.72;1682239;83;32928;-60